sensor_id;sensor_type;location;lat;lon;timestamp;pressure;altitude;pressure_sealevel;temperature;humidity
18678;BME280;9469;51.114;13.914;2023-01-27T00:03:22;99179.19;;;-0.02;100.00
18678;BME280;9469;51.114;13.914;2023-01-27T00:08:27;99171.91;;;0.00;100.00
18678;BME280;9469;51.114;13.914;2023-01-27T00:13:32;99173.63;;;-0.23;100.00
18678;BME280;9469;51.114;13.914;2023-01-27T00:18:40;99168.09;;;-0.15;100.00
18678;BME280;9469;51.114;13.914;2023-01-27T00:23:45;99172.97;;;-0.19;100.00
18678;BME280;9469;51.114;13.914;2023-01-27T00:29:03;99159.91;;;-0.19;100.00
18678;BME280;9469;51.114;13.914;2023-01-27T00:34:10;99160.56;;;-0.23;100.00
18678;BME280;9469;51.114;13.914;2023-01-27T00:39:16;99160.09;;;-0.20;100.00
18678;BME280;9469;51.114;13.914;2023-01-27T00:44:21;99165.97;;;-0.07;100.00
18678;BME280;9469;51.114;13.914;2023-01-27T00:49:29;99174.47;;;-0.11;100.00
18678;BME280;9469;51.114;13.914;2023-01-27T00:54:34;99164.16;;;-0.24;100.00
18678;BME280;9469;51.114;13.914;2023-01-27T00:59:39;99166.72;;;-0.36;100.00
18678;BME280;9469;51.114;13.914;2023-01-27T01:04:50;99178.78;;;-0.53;100.00
18678;BME280;9469;51.114;13.914;2023-01-27T01:09:55;99174.47;;;-0.47;100.00
18678;BME280;9469;51.114;13.914;2023-01-27T01:15:01;99171.88;;;-0.29;100.00
18678;BME280;9469;51.114;13.914;2023-01-27T01:20:10;99168.97;;;-0.57;100.00
18678;BME280;9469;51.114;13.914;2023-01-27T01:25:15;99177.25;;;-0.24;100.00
18678;BME280;9469;51.114;13.914;2023-01-27T01:30:20;99178.97;;;0.00;100.00
18678;BME280;9469;51.114;13.914;2023-01-27T01:35:30;99171.81;;;-0.05;100.00
18678;BME280;9469;51.114;13.914;2023-01-27T01:40:39;99187.03;;;-0.20;100.00
18678;BME280;9469;51.114;13.914;2023-01-27T01:45:50;99179.34;;;-0.33;100.00
18678;BME280;9469;51.114;13.914;2023-01-27T01:51:02;99179.06;;;-0.25;100.00
18678;BME280;9469;51.114;13.914;2023-01-27T01:56:13;99183.59;;;-0.32;100.00
18678;BME280;9469;51.114;13.914;2023-01-27T02:01:20;99181.91;;;-0.26;100.00
18678;BME280;9469;51.114;13.914;2023-01-27T02:06:28;99182.19;;;0.02;100.00
18678;BME280;9469;51.114;13.914;2023-01-27T02:11:37;99186.38;;;0.03;100.00
18678;BME280;9469;51.114;13.914;2023-01-27T02:16:43;99187.53;;;-0.11;100.00
18678;BME280;9469;51.114;13.914;2023-01-27T02:21:51;99186.84;;;0.00;100.00
18678;BME280;9469;51.114;13.914;2023-01-27T02:27:01;99184.34;;;0.05;100.00
18678;BME280;9469;51.114;13.914;2023-01-27T02:32:06;99186.91;;;0.23;100.00
18678;BME280;9469;51.114;13.914;2023-01-27T02:37:12;99183.94;;;-0.10;100.00
18678;BME280;9469;51.114;13.914;2023-01-27T02:42:20;99187.97;;;0.04;100.00
18678;BME280;9469;51.114;13.914;2023-01-27T02:47:25;99190.38;;;0.06;100.00
18678;BME280;9469;51.114;13.914;2023-01-27T02:52:31;99201.66;;;-0.12;100.00
18678;BME280;9469;51.114;13.914;2023-01-27T02:57:39;99200.22;;;0.22;100.00
18678;BME280;9469;51.114;13.914;2023-01-27T03:03:16;99203.66;;;0.22;100.00
18678;BME280;9469;51.114;13.914;2023-01-27T03:08:21;99204.53;;;-0.02;100.00
18678;BME280;9469;51.114;13.914;2023-01-27T03:13:29;99205.03;;;0.25;100.00
18678;BME280;9469;51.114;13.914;2023-01-27T03:18:35;99186.72;;;0.25;100.00
18678;BME280;9469;51.114;13.914;2023-01-27T03:23:40;99193.13;;;0.11;100.00
18678;BME280;9469;51.114;13.914;2023-01-27T03:28:50;99204.53;;;-0.02;100.00
18678;BME280;9469;51.114;13.914;2023-01-27T03:34:18;99204.47;;;0.34;100.00
18678;BME280;9469;51.114;13.914;2023-01-27T03:39:26;99210.50;;;0.05;100.00
18678;BME280;9469;51.114;13.914;2023-01-27T03:44:49;99218.56;;;0.04;100.00
18678;BME280;9469;51.114;13.914;2023-01-27T03:50:06;99212.81;;;0.13;100.00
18678;BME280;9469;51.114;13.914;2023-01-27T03:55:21;99218.13;;;0.36;100.00
18678;BME280;9469;51.114;13.914;2023-01-27T04:00:29;99217.66;;;0.28;100.00
18678;BME280;9469;51.114;13.914;2023-01-27T04:05:34;99217.00;;;0.14;100.00
18678;BME280;9469;51.114;13.914;2023-01-27T04:10:51;99213.88;;;0.24;100.00
18678;BME280;9469;51.114;13.914;2023-01-27T04:16:11;99221.66;;;0.12;100.00
18678;BME280;9469;51.114;13.914;2023-01-27T04:21:18;99215.00;;;-0.20;100.00
18678;BME280;9469;51.114;13.914;2023-01-27T04:26:25;99208.91;;;-0.32;100.00
18678;BME280;9469;51.114;13.914;2023-01-27T04:31:39;99207.03;;;-0.07;100.00
18678;BME280;9469;51.114;13.914;2023-01-27T04:36:45;99209.75;;;-0.02;100.00
18678;BME280;9469;51.114;13.914;2023-01-27T04:41:51;99208.84;;;-0.26;100.00
18678;BME280;9469;51.114;13.914;2023-01-27T04:46:58;99202.94;;;-0.03;100.00
18678;BME280;9469;51.114;13.914;2023-01-27T04:52:04;99203.22;;;-0.29;100.00
18678;BME280;9469;51.114;13.914;2023-01-27T04:57:09;99202.22;;;-0.10;100.00
18678;BME280;9469;51.114;13.914;2023-01-27T05:02:17;99205.28;;;-0.13;100.00
18678;BME280;9469;51.114;13.914;2023-01-27T05:07:22;99209.84;;;-0.09;100.00
18678;BME280;9469;51.114;13.914;2023-01-27T05:12:27;99220.09;;;-0.07;100.00
18678;BME280;9469;51.114;13.914;2023-01-27T05:17:37;99207.97;;;-0.20;100.00
18678;BME280;9469;51.114;13.914;2023-01-27T05:22:42;99214.44;;;-0.22;100.00
18678;BME280;9469;51.114;13.914;2023-01-27T05:27:47;99223.88;;;-0.03;100.00
18678;BME280;9469;51.114;13.914;2023-01-27T05:32:55;99231.63;;;0.22;100.00
18678;BME280;9469;51.114;13.914;2023-01-27T05:38:03;99219.34;;;0.22;100.00
18678;BME280;9469;51.114;13.914;2023-01-27T05:43:08;99238.91;;;0.02;100.00
18678;BME280;9469;51.114;13.914;2023-01-27T05:48:15;99242.75;;;-0.01;100.00
18678;BME280;9469;51.114;13.914;2023-01-27T05:53:21;99254.44;;;-0.04;100.00
18678;BME280;9469;51.114;13.914;2023-01-27T05:58:31;99255.25;;;-0.03;100.00
18678;BME280;9469;51.114;13.914;2023-01-27T06:03:40;99257.28;;;-0.05;100.00
18678;BME280;9469;51.114;13.914;2023-01-27T06:08:47;99266.28;;;-0.19;100.00
18678;BME280;9469;51.114;13.914;2023-01-27T06:13:55;99264.84;;;0.03;100.00
18678;BME280;9469;51.114;13.914;2023-01-27T06:19:03;99254.22;;;0.16;100.00
18678;BME280;9469;51.114;13.914;2023-01-27T06:24:12;99264.81;;;0.21;100.00
18678;BME280;9469;51.114;13.914;2023-01-27T06:29:20;99267.31;;;-0.02;100.00
18678;BME280;9469;51.114;13.914;2023-01-27T06:34:31;99265.94;;;-0.23;100.00
18678;BME280;9469;51.114;13.914;2023-01-27T06:39:43;99270.94;;;-0.03;100.00
18678;BME280;9469;51.114;13.914;2023-01-27T06:44:51;99280.31;;;-0.14;100.00
18678;BME280;9469;51.114;13.914;2023-01-27T06:49:59;99281.75;;;0.00;100.00
18678;BME280;9469;51.114;13.914;2023-01-27T06:55:05;99275.59;;;-0.05;100.00
18678;BME280;9469;51.114;13.914;2023-01-27T07:00:11;99295.66;;;0.19;100.00
18678;BME280;9469;51.114;13.914;2023-01-27T07:05:20;99302.34;;;0.15;100.00
18678;BME280;9469;51.114;13.914;2023-01-27T07:10:29;99290.84;;;0.16;100.00
18678;BME280;9469;51.114;13.914;2023-01-27T07:15:42;99305.53;;;0.17;100.00
18678;BME280;9469;51.114;13.914;2023-01-27T07:20:50;99306.91;;;0.20;100.00
18678;BME280;9469;51.114;13.914;2023-01-27T07:25:55;99299.56;;;-0.08;100.00
18678;BME280;9469;51.114;13.914;2023-01-27T07:31:02;99306.84;;;-0.10;100.00
18678;BME280;9469;51.114;13.914;2023-01-27T07:36:11;99300.88;;;0.19;100.00
18678;BME280;9469;51.114;13.914;2023-01-27T07:41:17;99313.06;;;0.07;100.00
18678;BME280;9469;51.114;13.914;2023-01-27T07:46:25;99317.94;;;-0.15;100.00
18678;BME280;9469;51.114;13.914;2023-01-27T07:51:35;99330.00;;;-0.38;100.00
18678;BME280;9469;51.114;13.914;2023-01-27T07:56:40;99327.44;;;-0.20;100.00
18678;BME280;9469;51.114;13.914;2023-01-27T08:01:47;99336.41;;;0.09;100.00
18678;BME280;9469;51.114;13.914;2023-01-27T08:06:57;99333.94;;;0.14;100.00
18678;BME280;9469;51.114;13.914;2023-01-27T08:12:04;99344.47;;;0.07;100.00
18678;BME280;9469;51.114;13.914;2023-01-27T08:17:09;99344.28;;;0.09;100.00
18678;BME280;9469;51.114;13.914;2023-01-27T08:22:19;99340.41;;;-0.07;100.00
18678;BME280;9469;51.114;13.914;2023-01-27T08:27:24;99353.41;;;-0.01;100.00
18678;BME280;9469;51.114;13.914;2023-01-27T08:32:30;99342.75;;;0.19;100.00
18678;BME280;9469;51.114;13.914;2023-01-27T08:37:42;99357.44;;;0.38;100.00
18678;BME280;9469;51.114;13.914;2023-01-27T08:42:51;99359.75;;;0.28;100.00
18678;BME280;9469;51.114;13.914;2023-01-27T08:47:56;99355.59;;;0.21;100.00
18678;BME280;9469;51.114;13.914;2023-01-27T08:53:04;99364.97;;;0.10;100.00
18678;BME280;9469;51.114;13.914;2023-01-27T08:58:11;99368.69;;;0.21;100.00
18678;BME280;9469;51.114;13.914;2023-01-27T09:03:16;99367.75;;;0.15;100.00
18678;BME280;9469;51.114;13.914;2023-01-27T09:08:26;99374.81;;;-0.10;100.00
18678;BME280;9469;51.114;13.914;2023-01-27T09:13:35;99365.84;;;0.04;100.00
18678;BME280;9469;51.114;13.914;2023-01-27T09:18:48;99377.50;;;-0.17;100.00
18678;BME280;9469;51.114;13.914;2023-01-27T09:23:57;99376.59;;;0.14;100.00
18678;BME280;9469;51.114;13.914;2023-01-27T09:29:07;99391.34;;;0.09;100.00
18678;BME280;9469;51.114;13.914;2023-01-27T09:34:13;99377.75;;;0.18;100.00
18678;BME280;9469;51.114;13.914;2023-01-27T09:39:23;99381.19;;;0.19;100.00
18678;BME280;9469;51.114;13.914;2023-01-27T09:45:00;99382.34;;;0.23;100.00
18678;BME280;9469;51.114;13.914;2023-01-27T09:50:26;99396.06;;;0.18;100.00
18678;BME280;9469;51.114;13.914;2023-01-27T09:55:43;99407.66;;;-0.14;100.00
18678;BME280;9469;51.114;13.914;2023-01-27T10:01:00;99390.66;;;0.56;100.00
18678;BME280;9469;51.114;13.914;2023-01-27T10:06:38;99397.94;;;0.36;100.00
18678;BME280;9469;51.114;13.914;2023-01-27T10:11:59;99395.81;;;0.44;100.00
18678;BME280;9469;51.114;13.914;2023-01-27T10:17:20;99388.97;;;0.61;100.00
18678;BME280;9469;51.114;13.914;2023-01-27T10:22:41;99398.88;;;0.41;100.00
18678;BME280;9469;51.114;13.914;2023-01-27T10:27:56;99379.38;;;0.55;100.00
18678;BME280;9469;51.114;13.914;2023-01-27T10:33:15;99378.88;;;0.65;100.00
18678;BME280;9469;51.114;13.914;2023-01-27T10:38:34;99383.09;;;0.48;100.00
18678;BME280;9469;51.114;13.914;2023-01-27T10:43:53;99388.47;;;0.71;100.00
18678;BME280;9469;51.114;13.914;2023-01-27T10:49:09;99381.34;;;0.42;100.00
18678;BME280;9469;51.114;13.914;2023-01-27T10:54:29;99390.75;;;0.49;100.00
18678;BME280;9469;51.114;13.914;2023-01-27T10:59:44;99384.00;;;0.90;100.00
18678;BME280;9469;51.114;13.914;2023-01-27T11:05:17;99386.06;;;0.69;100.00
18678;BME280;9469;51.114;13.914;2023-01-27T11:10:32;99391.66;;;0.55;100.00
18678;BME280;9469;51.114;13.914;2023-01-27T11:15:43;99387.88;;;0.51;100.00
18678;BME280;9469;51.114;13.914;2023-01-27T11:21:02;99390.84;;;0.54;100.00
18678;BME280;9469;51.114;13.914;2023-01-27T11:26:20;99386.31;;;0.98;100.00
18678;BME280;9469;51.114;13.914;2023-01-27T11:31:39;99383.50;;;0.99;100.00
18678;BME280;9469;51.114;13.914;2023-01-27T11:36:49;99390.69;;;1.04;100.00
18678;BME280;9469;51.114;13.914;2023-01-27T11:41:56;99384.25;;;0.88;100.00
18678;BME280;9469;51.114;13.914;2023-01-27T11:47:07;99381.84;;;1.16;100.00
18678;BME280;9469;51.114;13.914;2023-01-27T11:52:18;99380.31;;;1.09;100.00
18678;BME280;9469;51.114;13.914;2023-01-27T11:57:27;99372.59;;;1.14;100.00
18678;BME280;9469;51.114;13.914;2023-01-27T12:02:41;99367.97;;;1.27;100.00
18678;BME280;9469;51.114;13.914;2023-01-27T12:07:52;99357.19;;;1.35;100.00
18678;BME280;9469;51.114;13.914;2023-01-27T12:13:06;99367.88;;;1.04;100.00
18678;BME280;9469;51.114;13.914;2023-01-27T12:18:18;99347.28;;;1.08;100.00
18678;BME280;9469;51.114;13.914;2023-01-27T12:23:27;99344.66;;;1.08;100.00
18678;BME280;9469;51.114;13.914;2023-01-27T12:28:39;99345.59;;;1.13;100.00
18678;BME280;9469;51.114;13.914;2023-01-27T12:33:57;99353.34;;;1.08;100.00
18678;BME280;9469;51.114;13.914;2023-01-27T12:39:04;99350.56;;;1.03;100.00
18678;BME280;9469;51.114;13.914;2023-01-27T12:44:15;99351.16;;;0.57;100.00
18678;BME280;9469;51.114;13.914;2023-01-27T12:49:30;99353.31;;;0.79;100.00
18678;BME280;9469;51.114;13.914;2023-01-27T12:54:37;99352.09;;;1.11;100.00
18678;BME280;9469;51.114;13.914;2023-01-27T12:59:47;99348.25;;;1.25;100.00
18678;BME280;9469;51.114;13.914;2023-01-27T13:05:03;99339.41;;;1.49;100.00
18678;BME280;9469;51.114;13.914;2023-01-27T13:10:16;99338.09;;;1.17;100.00
18678;BME280;9469;51.114;13.914;2023-01-27T13:15:27;99341.56;;;1.29;100.00
18678;BME280;9469;51.114;13.914;2023-01-27T13:20:41;99343.53;;;1.57;100.00
18678;BME280;9469;51.114;13.914;2023-01-27T13:25:51;99336.88;;;1.31;100.00
18678;BME280;9469;51.114;13.914;2023-01-27T13:31:02;99340.09;;;1.56;100.00
18678;BME280;9469;51.114;13.914;2023-01-27T13:36:20;99341.56;;;1.52;100.00
18678;BME280;9469;51.114;13.914;2023-01-27T13:41:35;99340.44;;;1.48;100.00
18678;BME280;9469;51.114;13.914;2023-01-27T13:46:49;99341.00;;;1.50;100.00
18678;BME280;9469;51.114;13.914;2023-01-27T13:52:00;99345.69;;;1.60;100.00
18678;BME280;9469;51.114;13.914;2023-01-27T13:57:41;99349.31;;;1.35;100.00
18678;BME280;9469;51.114;13.914;2023-01-27T14:03:18;99350.59;;;1.44;100.00
18678;BME280;9469;51.114;13.914;2023-01-27T14:09:00;99346.59;;;1.42;100.00
18678;BME280;9469;51.114;13.914;2023-01-27T14:14:20;99350.44;;;1.39;100.00
18678;BME280;9469;51.114;13.914;2023-01-27T14:19:39;99346.38;;;1.55;100.00
18678;BME280;9469;51.114;13.914;2023-01-27T14:24:56;99366.31;;;1.44;100.00
18678;BME280;9469;51.114;13.914;2023-01-27T14:30:20;99373.00;;;1.40;100.00
18678;BME280;9469;51.114;13.914;2023-01-27T14:35:30;99367.03;;;1.75;100.00
18678;BME280;9469;51.114;13.914;2023-01-27T14:40:56;99372.81;;;1.65;100.00
18678;BME280;9469;51.114;13.914;2023-01-27T14:46:12;99371.00;;;1.66;100.00
18678;BME280;9469;51.114;13.914;2023-01-27T14:51:32;99379.09;;;1.53;100.00
18678;BME280;9469;51.114;13.914;2023-01-27T14:56:44;99383.69;;;1.69;100.00
18678;BME280;9469;51.114;13.914;2023-01-27T15:01:59;99387.38;;;1.50;100.00
18678;BME280;9469;51.114;13.914;2023-01-27T15:07:14;99400.16;;;1.46;100.00
18678;BME280;9469;51.114;13.914;2023-01-27T15:12:34;99394.97;;;1.69;100.00
18678;BME280;9469;51.114;13.914;2023-01-27T15:17:54;99400.09;;;1.64;100.00
18678;BME280;9469;51.114;13.914;2023-01-27T15:23:26;99393.72;;;1.60;100.00
18678;BME280;9469;51.114;13.914;2023-01-27T15:28:48;99401.00;;;1.81;100.00
18678;BME280;9469;51.114;13.914;2023-01-27T15:33:56;99406.34;;;1.63;100.00
18678;BME280;9469;51.114;13.914;2023-01-27T15:39:19;99402.19;;;1.85;100.00
18678;BME280;9469;51.114;13.914;2023-01-27T15:44:58;99403.22;;;1.96;100.00
18678;BME280;9469;51.114;13.914;2023-01-27T15:50:17;99409.66;;;1.70;100.00
18678;BME280;9469;51.114;13.914;2023-01-27T15:55:25;99412.22;;;1.88;100.00
18678;BME280;9469;51.114;13.914;2023-01-27T16:00:38;99414.13;;;1.81;100.00
18678;BME280;9469;51.114;13.914;2023-01-27T16:05:44;99416.72;;;1.58;100.00
18678;BME280;9469;51.114;13.914;2023-01-27T16:11:21;99420.38;;;1.57;100.00
18678;BME280;9469;51.114;13.914;2023-01-27T16:16:31;99418.56;;;1.69;100.00
18678;BME280;9469;51.114;13.914;2023-01-27T16:21:45;99420.88;;;1.36;100.00
18678;BME280;9469;51.114;13.914;2023-01-27T16:26:56;99434.16;;;1.23;100.00
18678;BME280;9469;51.114;13.914;2023-01-27T16:32:16;99437.34;;;1.25;100.00
18678;BME280;9469;51.114;13.914;2023-01-27T16:37:23;99440.16;;;0.94;100.00
18678;BME280;9469;51.114;13.914;2023-01-27T16:42:35;99432.59;;;1.04;100.00
18678;BME280;9469;51.114;13.914;2023-01-27T16:47:49;99443.81;;;0.93;100.00
18678;BME280;9469;51.114;13.914;2023-01-27T16:52:57;99450.44;;;0.77;100.00
18678;BME280;9469;51.114;13.914;2023-01-27T16:58:03;99452.53;;;0.87;100.00
18678;BME280;9469;51.114;13.914;2023-01-27T17:03:14;99459.25;;;0.83;100.00
18678;BME280;9469;51.114;13.914;2023-01-27T17:08:33;99465.72;;;0.80;100.00
18678;BME280;9469;51.114;13.914;2023-01-27T17:13:48;99465.94;;;0.79;100.00
18678;BME280;9469;51.114;13.914;2023-01-27T17:19:03;99467.44;;;0.68;100.00
18678;BME280;9469;51.114;13.914;2023-01-27T17:24:14;99468.41;;;0.73;100.00
18678;BME280;9469;51.114;13.914;2023-01-27T17:29:21;99474.97;;;0.83;100.00
18678;BME280;9469;51.114;13.914;2023-01-27T17:34:31;99485.94;;;0.73;100.00
18678;BME280;9469;51.114;13.914;2023-01-27T17:39:41;99475.38;;;0.80;100.00
18678;BME280;9469;51.114;13.914;2023-01-27T17:44:47;99481.34;;;0.87;100.00
18678;BME280;9469;51.114;13.914;2023-01-27T17:49:56;99489.28;;;0.80;100.00
18678;BME280;9469;51.114;13.914;2023-01-27T17:55:05;99494.75;;;0.79;100.00
18678;BME280;9469;51.114;13.914;2023-01-27T18:00:20;99483.03;;;0.81;100.00
18678;BME280;9469;51.114;13.914;2023-01-27T18:05:32;99484.13;;;0.73;100.00
18678;BME280;9469;51.114;13.914;2023-01-27T18:10:41;99487.97;;;0.71;100.00
18678;BME280;9469;51.114;13.914;2023-01-27T18:15:47;99490.34;;;0.72;100.00
18678;BME280;9469;51.114;13.914;2023-01-27T18:21:14;99491.06;;;0.61;100.00
18678;BME280;9469;51.114;13.914;2023-01-27T18:26:22;99499.75;;;0.80;100.00
18678;BME280;9469;51.114;13.914;2023-01-27T18:31:34;99496.69;;;0.65;100.00
18678;BME280;9469;51.114;13.914;2023-01-27T18:36:52;99506.88;;;0.73;100.00
18678;BME280;9469;51.114;13.914;2023-01-27T18:41:58;99512.13;;;0.73;100.00
18678;BME280;9469;51.114;13.914;2023-01-27T18:47:26;99520.94;;;0.79;100.00
18678;BME280;9469;51.114;13.914;2023-01-27T18:52:36;99523.97;;;0.76;100.00
18678;BME280;9469;51.114;13.914;2023-01-27T18:57:42;99534.22;;;0.77;100.00
18678;BME280;9469;51.114;13.914;2023-01-27T19:02:49;99534.00;;;0.60;100.00
18678;BME280;9469;51.114;13.914;2023-01-27T19:08:00;99532.25;;;0.72;100.00
18678;BME280;9469;51.114;13.914;2023-01-27T19:13:10;99544.34;;;0.73;100.00
18678;BME280;9469;51.114;13.914;2023-01-27T19:18:20;99549.66;;;0.67;100.00
18678;BME280;9469;51.114;13.914;2023-01-27T19:23:30;99550.16;;;0.76;100.00
18678;BME280;9469;51.114;13.914;2023-01-27T19:28:37;99545.16;;;0.74;100.00
18678;BME280;9469;51.114;13.914;2023-01-27T19:33:42;99552.22;;;0.73;100.00
18678;BME280;9469;51.114;13.914;2023-01-27T19:38:52;99556.13;;;0.64;100.00
18678;BME280;9469;51.114;13.914;2023-01-27T19:44:01;99554.38;;;0.58;100.00
18678;BME280;9469;51.114;13.914;2023-01-27T19:49:10;99550.22;;;0.69;100.00
18678;BME280;9469;51.114;13.914;2023-01-27T19:54:22;99549.44;;;0.68;100.00
18678;BME280;9469;51.114;13.914;2023-01-27T19:59:27;99559.25;;;0.73;100.00
18678;BME280;9469;51.114;13.914;2023-01-27T20:04:35;99564.44;;;0.80;100.00
18678;BME280;9469;51.114;13.914;2023-01-27T20:09:43;99569.88;;;0.78;100.00
18678;BME280;9469;51.114;13.914;2023-01-27T20:14:49;99565.03;;;0.57;100.00
18678;BME280;9469;51.114;13.914;2023-01-27T20:19:57;99565.41;;;0.60;100.00
18678;BME280;9469;51.114;13.914;2023-01-27T20:25:10;99566.44;;;0.59;100.00
18678;BME280;9469;51.114;13.914;2023-01-27T20:30:18;99571.41;;;0.67;100.00
18678;BME280;9469;51.114;13.914;2023-01-27T20:35:29;99577.81;;;0.71;100.00
18678;BME280;9469;51.114;13.914;2023-01-27T20:40:37;99570.13;;;0.77;100.00
18678;BME280;9469;51.114;13.914;2023-01-27T20:45:42;99573.47;;;0.59;100.00
18678;BME280;9469;51.114;13.914;2023-01-27T20:50:56;99570.59;;;0.67;100.00
18678;BME280;9469;51.114;13.914;2023-01-27T20:56:12;99573.44;;;0.65;100.00
18678;BME280;9469;51.114;13.914;2023-01-27T21:01:23;99574.28;;;0.59;100.00
18678;BME280;9469;51.114;13.914;2023-01-27T21:06:28;99577.66;;;0.66;100.00
18678;BME280;9469;51.114;13.914;2023-01-27T21:11:37;99574.44;;;0.64;100.00
18678;BME280;9469;51.114;13.914;2023-01-27T21:16:47;99570.13;;;0.77;100.00
18678;BME280;9469;51.114;13.914;2023-01-27T21:21:54;99577.38;;;0.75;100.00
18678;BME280;9469;51.114;13.914;2023-01-27T21:27:02;99581.44;;;0.70;100.00
18678;BME280;9469;51.114;13.914;2023-01-27T21:32:10;99576.13;;;0.77;100.00
18678;BME280;9469;51.114;13.914;2023-01-27T21:37:17;99575.28;;;0.83;100.00
18678;BME280;9469;51.114;13.914;2023-01-27T21:42:25;99581.91;;;0.86;100.00
18678;BME280;9469;51.114;13.914;2023-01-27T21:47:42;99584.16;;;0.82;100.00
18678;BME280;9469;51.114;13.914;2023-01-27T21:52:48;99576.94;;;0.78;100.00
18678;BME280;9469;51.114;13.914;2023-01-27T21:57:57;99582.19;;;0.78;100.00
18678;BME280;9469;51.114;13.914;2023-01-27T22:03:06;99579.09;;;1.05;100.00
18678;BME280;9469;51.114;13.914;2023-01-27T22:08:11;99567.97;;;1.10;100.00
18678;BME280;9469;51.114;13.914;2023-01-27T22:13:20;99563.16;;;1.07;100.00
18678;BME280;9469;51.114;13.914;2023-01-27T22:18:25;99571.16;;;0.94;100.00
18678;BME280;9469;51.114;13.914;2023-01-27T22:23:31;99571.56;;;0.91;100.00
18678;BME280;9469;51.114;13.914;2023-01-27T22:28:38;99579.97;;;0.99;100.00
18678;BME280;9469;51.114;13.914;2023-01-27T22:33:43;99558.88;;;1.12;100.00
18678;BME280;9469;51.114;13.914;2023-01-27T22:38:48;99569.84;;;1.03;100.00
18678;BME280;9469;51.114;13.914;2023-01-27T22:43:56;99565.91;;;1.12;100.00
18678;BME280;9469;51.114;13.914;2023-01-27T22:49:01;99565.34;;;1.10;100.00
18678;BME280;9469;51.114;13.914;2023-01-27T22:54:07;99574.94;;;1.16;100.00
18678;BME280;9469;51.114;13.914;2023-01-27T22:59:15;99574.72;;;0.99;100.00
18678;BME280;9469;51.114;13.914;2023-01-27T23:04:20;99573.06;;;1.05;100.00
18678;BME280;9469;51.114;13.914;2023-01-27T23:09:27;99580.41;;;1.14;100.00
18678;BME280;9469;51.114;13.914;2023-01-27T23:14:35;99568.94;;;1.15;100.00
18678;BME280;9469;51.114;13.914;2023-01-27T23:19:40;99561.56;;;1.24;100.00
18678;BME280;9469;51.114;13.914;2023-01-27T23:24:45;99564.75;;;1.62;100.00
18678;BME280;9469;51.114;13.914;2023-01-27T23:29:52;99567.16;;;1.27;100.00
18678;BME280;9469;51.114;13.914;2023-01-27T23:34:57;99568.28;;;1.20;100.00
18678;BME280;9469;51.114;13.914;2023-01-27T23:40:03;99576.97;;;0.96;100.00
18678;BME280;9469;51.114;13.914;2023-01-27T23:45:14;99567.53;;;0.95;100.00
18678;BME280;9469;51.114;13.914;2023-01-27T23:50:19;99566.03;;;0.81;100.00
18678;BME280;9469;51.114;13.914;2023-01-27T23:55:25;99570.53;;;0.73;100.00
